Time;durP1;ratioP1;P1;durP2;ratioP2;P2;SDS_P1;SDS_P2;PMS_P1;PMS_P2;Temp;Humidity;BMP_temperature;BMP_pressure;BME280_temperature;BME280_humidity;BME280_pressure;Samples;Min_cycle;Max_cycle;Signal;HPM_P1;HPM_P2
2021/09/26 00:00:19;;;;;;;11.50;6.75;;;;;;;;;;6241939;23;20012;-76
2021/09/26 00:02:45;;;;;;;13.55;7.10;;;;;;;;;;6237958;22;20008;-75
2021/09/26 00:05:12;;;;;;;9.38;6.55;;;;;;;;;;6238726;23;20071;-75
2021/09/26 00:07:39;;;;;;;15.52;6.75;;;;;;;;;;6240649;23;20046;-75
2021/09/26 00:10:07;;;;;;;12.27;6.82;;;;;;;;;;6242722;23;20083;-75
2021/09/26 00:12:34;;;;;;;12.18;7.00;;;;;;;;;;6242149;23;20356;-75
2021/09/26 00:15:00;;;;;;;10.48;7.05;;;;;;;;;;6242351;23;20015;-75
2021/09/26 00:17:27;;;;;;;9.65;7.00;;;;;;;;;;6242723;23;20101;-75
2021/09/26 00:19:53;;;;;;;11.20;7.30;;;;;;;;;;6242769;23;20043;-76
2021/09/26 00:22:19;;;;;;;12.93;6.90;;;;;;;;;;6240833;23;20001;-75
2021/09/26 00:24:45;;;;;;;13.50;7.05;;;;;;;;;;6242516;23;20106;-75
2021/09/26 00:27:12;;;;;;;9.45;7.13;;;;;;;;;;6242322;23;20011;-75
2021/09/26 00:29:39;;;;;;;10.57;7.15;;;;;;;;;;6242792;23;20030;-75
2021/09/26 00:32:06;;;;;;;14.20;7.03;;;;;;;;;;6242235;23;20093;-75
2021/09/26 00:34:32;;;;;;;12.60;6.97;;;;;;;;;;6240420;23;20030;-75
2021/09/26 00:36:59;;;;;;;11.05;7.28;;;;;;;;;;6241800;23;20079;-76
2021/09/26 00:39:25;;;;;;;9.07;6.57;;;;;;;;;;6242208;23;20084;-75
2021/09/26 00:41:51;;;;;;;12.55;7.20;;;;;;;;;;6242910;23;20079;-76
2021/09/26 00:44:18;;;;;;;14.88;7.82;;;;;;;;;;6240216;23;20031;-75
2021/09/26 00:46:44;;;;;;;12.65;7.53;;;;;;;;;;6215284;23;20008;-76
2021/09/26 00:49:10;;;;;;;11.40;6.93;;;;;;;;;;6242088;23;20555;-76
2021/09/26 00:51:37;;;;;;;12.73;7.10;;;;;;;;;;6240795;23;20007;-75
2021/09/26 00:54:03;;;;;;;10.90;6.80;;;;;;;;;;6241972;23;20079;-75
2021/09/26 00:56:33;;;;;;;12.45;7.32;;;;;;;;;;6242013;23;20028;-75
2021/09/26 00:58:59;;;;;;;11.82;7.10;;;;;;;;;;6241849;23;20379;-75
2021/09/26 01:01:25;;;;;;;10.75;8.02;;;;;;;;;;6241566;23;20447;-75
2021/09/26 01:03:52;;;;;;;18.52;7.72;;;;;;;;;;6236380;22;20004;-76
2021/09/26 01:06:18;;;;;;;12.85;7.15;;;;;;;;;;6238947;23;20012;-75
2021/09/26 01:09:02;;;;;;;21.08;8.35;;;;;;;;;;6241983;23;20408;-76
2021/09/26 01:11:38;;;;;;;11.95;7.50;;;;;;;;;;6241960;23;20000;-75
2021/09/26 01:14:04;;;;;;;15.93;7.68;;;;;;;;;;6240089;23;20004;-75
2021/09/26 01:16:35;;;;;;;17.38;7.80;;;;;;;;;;6241919;23;20003;-75
2021/09/26 01:19:26;;;;;;;13.73;7.93;;;;;;;;;;6242144;23;20000;-76
2021/09/26 01:21:54;;;;;;;17.23;8.43;;;;;;;;;;6239752;23;20036;-75
2021/09/26 01:24:20;;;;;;;14.73;7.97;;;;;;;;;;6241910;23;20000;-75
2021/09/26 01:27:13;;;;;;;16.95;8.30;;;;;;;;;;6242148;23;20004;-75
2021/09/26 01:29:54;;;;;;;14.18;8.15;;;;;;;;;;6195818;23;20066;-75
2021/09/26 01:32:21;;;;;;;16.23;8.48;;;;;;;;;;6241551;23;20195;-75
2021/09/26 01:34:48;;;;;;;19.13;8.15;;;;;;;;;;6242555;23;20023;-75
2021/09/26 01:37:36;;;;;;;11.55;7.95;;;;;;;;;;6241972;23;20083;-75
2021/09/26 01:40:05;;;;;;;15.52;7.57;;;;;;;;;;6241590;23;20329;-75
2021/09/26 01:42:36;;;;;;;12.98;7.60;;;;;;;;;;6241720;23;20004;-75
2021/09/26 01:45:02;;;;;;;12.70;7.60;;;;;;;;;;6240120;23;20035;-75
2021/09/26 01:47:31;;;;;;;9.52;7.40;;;;;;;;;;6242614;23;20297;-75
2021/09/26 01:49:59;;;;;;;16.10;8.15;;;;;;;;;;6243701;23;20000;-75
2021/09/26 01:52:27;;;;;;;13.18;8.02;;;;;;;;;;6243855;23;20004;-75
2021/09/26 01:54:53;;;;;;;15.43;8.82;;;;;;;;;;6242213;23;20028;-75
2021/09/26 01:57:20;;;;;;;13.70;8.45;;;;;;;;;;6244026;23;20008;-75
2021/09/26 01:59:50;;;;;;;12.88;8.23;;;;;;;;;;6243800;23;20019;-75
2021/09/26 02:02:17;;;;;;;13.50;7.53;;;;;;;;;;6243826;22;20032;-75
2021/09/26 02:04:45;;;;;;;16.65;8.45;;;;;;;;;;6243916;23;20087;-75
2021/09/26 02:07:11;;;;;;;13.45;7.75;;;;;;;;;;6242370;23;20000;-76
2021/09/26 02:09:37;;;;;;;12.48;8.18;;;;;;;;;;6243528;23;20078;-76
2021/09/26 02:12:04;;;;;;;14.40;8.30;;;;;;;;;;6243697;23;20079;-75
2021/09/26 02:14:30;;;;;;;15.13;8.40;;;;;;;;;;6243636;23;20462;-75
2021/09/26 02:16:57;;;;;;;16.65;8.57;;;;;;;;;;6244049;23;20024;-76
2021/09/26 02:19:23;;;;;;;14.65;8.35;;;;;;;;;;6240812;23;20223;-76
2021/09/26 02:21:50;;;;;;;16.95;9.68;;;;;;;;;;6238894;23;20615;-76
2021/09/26 02:24:17;;;;;;;19.10;9.50;;;;;;;;;;6237571;23;20334;-75
2021/09/26 02:26:43;;;;;;;16.65;7.82;;;;;;;;;;6239030;23;20024;-74
2021/09/26 02:29:09;;;;;;;16.30;8.48;;;;;;;;;;6237272;23;20011;-74
2021/09/26 02:31:37;;;;;;;16.10;8.85;;;;;;;;;;6232838;23;20507;-74
2021/09/26 02:34:03;;;;;;;16.98;8.77;;;;;;;;;;6234265;23;20012;-76
2021/09/26 02:36:29;;;;;;;17.48;9.05;;;;;;;;;;6231786;23;20004;-75
2021/09/26 02:38:55;;;;;;;14.45;8.60;;;;;;;;;;6233216;23;20062;-75
2021/09/26 02:41:38;;;;;;;15.38;8.43;;;;;;;;;;6234053;23;20031;-75
2021/09/26 02:44:14;;;;;;;13.18;7.72;;;;;;;;;;6233271;23;20008;-76
2021/09/26 02:46:43;;;;;;;19.20;8.73;;;;;;;;;;6233777;23;20420;-74
2021/09/26 02:49:09;;;;;;;16.63;9.05;;;;;;;;;;6206538;23;20492;-73
2021/09/26 02:51:36;;;;;;;15.07;8.98;;;;;;;;;;6233683;23;20027;-74
2021/09/26 02:54:02;;;;;;;14.57;8.35;;;;;;;;;;6231743;23;20458;-74
2021/09/26 02:56:28;;;;;;;13.90;8.07;;;;;;;;;;6232914;23;20006;-74
2021/09/26 02:58:59;;;;;;;11.82;8.20;;;;;;;;;;6233317;23;20008;-74
2021/09/26 03:01:26;;;;;;;16.00;9.13;;;;;;;;;;6233150;23;20462;-74
2021/09/26 03:03:52;;;;;;;15.65;8.68;;;;;;;;;;6227704;22;20000;-74
2021/09/26 03:06:18;;;;;;;18.08;9.88;;;;;;;;;;6231317;23;20005;-76
2021/09/26 03:08:45;;;;;;;17.85;8.63;;;;;;;;;;6230420;23;20024;-76
2021/09/26 03:11:11;;;;;;;17.85;7.90;;;;;;;;;;6230646;23;20007;-76
2021/09/26 03:13:37;;;;;;;12.75;7.75;;;;;;;;;;6228661;23;20889;-76
2021/09/26 03:16:07;;;;;;;15.73;9.27;;;;;;;;;;6230336;23;20039;-75
2021/09/26 03:18:33;;;;;;;15.65;8.38;;;;;;;;;;6230330;23;20360;-76
2021/09/26 03:21:00;;;;;;;20.83;8.20;;;;;;;;;;6230016;23;20012;-75
2021/09/26 03:23:26;;;;;;;12.00;7.85;;;;;;;;;;6231152;23;20007;-75
2021/09/26 03:25:52;;;;;;;15.95;8.75;;;;;;;;;;6231166;23;20434;-75
2021/09/26 03:28:19;;;;;;;14.85;7.60;;;;;;;;;;6206943;23;20028;-76
2021/09/26 03:30:45;;;;;;;11.75;8.25;;;;;;;;;;6233563;23;20004;-75
2021/09/26 03:33:11;;;;;;;13.98;8.13;;;;;;;;;;6233215;23;20444;-75
2021/09/26 03:35:37;;;;;;;17.88;8.98;;;;;;;;;;6232268;23;20030;-75
2021/09/26 03:38:06;;;;;;;17.17;8.23;;;;;;;;;;6232608;23;20614;-75
2021/09/26 03:40:33;;;;;;;12.77;8.30;;;;;;;;;;6232906;23;20066;-75
2021/09/26 03:42:59;;;;;;;12.70;8.43;;;;;;;;;;6233293;23;20015;-75
2021/09/26 03:45:25;;;;;;;13.15;8.52;;;;;;;;;;6232419;23;20000;-75
2021/09/26 03:47:52;;;;;;;18.02;8.52;;;;;;;;;;6233351;23;20027;-76
2021/09/26 03:50:18;;;;;;;12.27;8.57;;;;;;;;;;6231073;23;20054;-75
2021/09/26 03:52:44;;;;;;;12.23;7.63;;;;;;;;;;6232352;23;20011;-76
2021/09/26 03:55:15;;;;;;;12.35;8.15;;;;;;;;;;6229866;23;20010;-76
2021/09/26 03:57:41;;;;;;;14.93;8.57;;;;;;;;;;6230600;23;20003;-75
2021/09/26 04:00:08;;;;;;;13.38;8.07;;;;;;;;;;6229957;23;20016;-76
2021/09/26 04:02:35;;;;;;;12.60;8.27;;;;;;;;;;6228835;22;20035;-76
2021/09/26 04:05:01;;;;;;;13.88;8.13;;;;;;;;;;6229940;23;20058;-76
2021/09/26 04:07:27;;;;;;;21.33;9.05;;;;;;;;;;6229580;23;20031;-76
2021/09/26 04:09:53;;;;;;;9.68;7.88;;;;;;;;;;6198484;23;20087;-75
2021/09/26 04:12:20;;;;;;;10.32;8.02;;;;;;;;;;6229524;23;19996;-76
2021/09/26 04:14:46;;;;;;;16.08;8.20;;;;;;;;;;6229982;23;20038;-76
2021/09/26 04:17:12;;;;;;;13.18;8.48;;;;;;;;;;6230210;23;20031;-76
2021/09/26 04:19:38;;;;;;;14.88;7.65;;;;;;;;;;6229273;23;20005;-76
2021/09/26 04:22:04;;;;;;;15.40;8.38;;;;;;;;;;6228340;23;20016;-76
2021/09/26 04:24:30;;;;;;;17.63;8.70;;;;;;;;;;6229475;23;20647;-76
2021/09/26 04:26:57;;;;;;;13.93;8.48;;;;;;;;;;6230053;23;20039;-76
2021/09/26 04:29:23;;;;;;;14.57;8.82;;;;;;;;;;6230663;23;20087;-74
2021/09/26 04:31:49;;;;;;;21.98;9.85;;;;;;;;;;6203085;23;20083;-74
2021/09/26 04:34:15;;;;;;;14.68;8.50;;;;;;;;;;6227723;23;20087;-74
2021/09/26 04:36:42;;;;;;;17.13;8.77;;;;;;;;;;6229634;23;20004;-74
2021/09/26 04:39:08;;;;;;;15.85;8.75;;;;;;;;;;6229410;23;20008;-73
2021/09/26 04:41:34;;;;;;;13.93;8.20;;;;;;;;;;6229456;23;20015;-73
2021/09/26 04:44:00;;;;;;;16.42;9.30;;;;;;;;;;6229564;23;20027;-74
2021/09/26 04:46:26;;;;;;;18.40;8.68;;;;;;;;;;6229483;23;20075;-74
2021/09/26 04:48:53;;;;;;;12.60;7.97;;;;;;;;;;6227844;23;20492;-76
2021/09/26 04:51:19;;;;;;;13.80;8.50;;;;;;;;;;6229723;23;20011;-75
2021/09/26 04:53:45;;;;;;;19.92;9.07;;;;;;;;;;6229362;23;20080;-76
2021/09/26 04:56:11;;;;;;;16.55;8.65;;;;;;;;;;6229596;23;20337;-76
2021/09/26 04:58:37;;;;;;;13.48;8.77;;;;;;;;;;6229451;23;20074;-76
2021/09/26 05:01:04;;;;;;;17.73;9.18;;;;;;;;;;6227344;22;20103;-76
2021/09/26 05:03:30;;;;;;;14.25;9.00;;;;;;;;;;6229048;23;19996;-76
2021/09/26 05:05:56;;;;;;;14.73;8.80;;;;;;;;;;6229565;23;20928;-75
2021/09/26 05:08:22;;;;;;;14.85;9.15;;;;;;;;;;6232469;23;20000;-75
2021/09/26 05:10:48;;;;;;;10.60;8.35;;;;;;;;;;6231777;23;20008;-71
2021/09/26 05:13:14;;;;;;;14.38;8.80;;;;;;;;;;6232329;23;19996;-72
2021/09/26 05:15:41;;;;;;;13.38;8.90;;;;;;;;;;6230038;23;20034;-72
2021/09/26 05:18:07;;;;;;;17.00;8.77;;;;;;;;;;6231724;23;20004;-73
2021/09/26 05:20:33;;;;;;;15.75;9.48;;;;;;;;;;6232434;23;20016;-78
2021/09/26 05:22:59;;;;;;;12.68;8.55;;;;;;;;;;6233546;23;20042;-77
2021/09/26 05:25:27;;;;;;;15.25;8.90;;;;;;;;;;6233399;23;20194;-75
2021/09/26 05:27:53;;;;;;;12.63;9.45;;;;;;;;;;6233502;23;20027;-77
2021/09/26 05:30:20;;;;;;;15.90;8.85;;;;;;;;;;6233400;23;20523;-77
2021/09/26 05:32:46;;;;;;;13.30;8.68;;;;;;;;;;6234404;23;20016;-77
2021/09/26 05:35:12;;;;;;;13.13;9.30;;;;;;;;;;6234458;23;20012;-77
2021/09/26 05:37:39;;;;;;;15.98;9.48;;;;;;;;;;6232279;23;20004;-76
2021/09/26 05:40:06;;;;;;;20.38;9.20;;;;;;;;;;6234156;23;20026;-76
2021/09/26 05:42:33;;;;;;;14.25;8.98;;;;;;;;;;6234473;23;20011;-76
2021/09/26 05:45:00;;;;;;;17.25;9.55;;;;;;;;;;6233910;23;20000;-76
2021/09/26 05:47:26;;;;;;;14.35;9.85;;;;;;;;;;6207083;23;20332;-76
2021/09/26 05:49:52;;;;;;;16.42;10.13;;;;;;;;;;6234303;23;19996;-76
2021/09/26 05:52:18;;;;;;;17.40;9.23;;;;;;;;;;6231622;23;20455;-76
2021/09/26 05:54:45;;;;;;;14.93;9.25;;;;;;;;;;6233625;23;20027;-77
2021/09/26 05:57:11;;;;;;;18.55;10.20;;;;;;;;;;6234440;23;20386;-77
2021/09/26 05:59:38;;;;;;;18.95;10.23;;;;;;;;;;6233771;23;20091;-76
2021/09/26 06:02:10;;;;;;;13.00;10.23;;;;;;;;;;6233979;22;20279;-76
2021/09/26 06:04:36;;;;;;;;;;;;;;;;;;6205903;23;20008;-76
2021/09/26 06:07:02;;;;;;;19.45;10.50;;;;;;;;;;6233235;23;20331;-77
2021/09/26 06:09:28;;;;;;;16.33;9.70;;;;;;;;;;6234403;23;20733;-76
2021/09/26 06:11:55;;;;;;;22.52;10.43;;;;;;;;;;6234231;23;20000;-76
2021/09/26 06:14:21;;;;;;;14.38;9.55;;;;;;;;;;6231937;23;20083;-76
2021/09/26 06:16:47;;;;;;;13.07;9.35;;;;;;;;;;6233415;23;20007;-76
2021/09/26 06:19:13;;;;;;;16.40;7.93;;;;;;;;;;6234029;23;20007;-75
2021/09/26 06:21:43;;;;;;;19.73;9.23;;;;;;;;;;6232184;23;20015;-77
2021/09/26 06:24:10;;;;;;;11.95;7.63;;;;;;;;;;6233999;23;20007;-77
2021/09/26 06:26:36;;;;;;;10.57;6.72;;;;;;;;;;6233254;23;20444;-76
2021/09/26 06:29:02;;;;;;;11.82;7.35;;;;;;;;;;6233926;23;20082;-76
2021/09/26 06:31:28;;;;;;;11.82;6.82;;;;;;;;;;6231694;23;20012;-75
2021/09/26 06:33:54;;;;;;;8.30;6.95;;;;;;;;;;6233070;23;20024;-76
2021/09/26 06:36:21;;;;;;;12.35;7.78;;;;;;;;;;6233794;23;20036;-75
2021/09/26 06:38:47;;;;;;;11.27;6.82;;;;;;;;;;6232910;23;20003;-75
2021/09/26 06:41:15;;;;;;;12.70;7.10;;;;;;;;;;6231662;23;20016;-76
2021/09/26 06:43:41;;;;;;;11.35;7.03;;;;;;;;;;6233229;23;20321;-76
2021/09/26 06:46:07;;;;;;;9.07;6.40;;;;;;;;;;6232778;23;20548;-76
2021/09/26 06:48:33;;;;;;;12.25;7.68;;;;;;;;;;6232896;23;20024;-77
2021/09/26 06:51:00;;;;;;;8.60;6.13;;;;;;;;;;6230743;23;20058;-75
2021/09/26 06:53:26;;;;;;;11.93;7.55;;;;;;;;;;6233733;23;20075;-76
2021/09/26 06:55:52;;;;;;;14.55;6.85;;;;;;;;;;6232974;23;20008;-76
2021/09/26 06:58:18;;;;;;;10.40;7.22;;;;;;;;;;6232849;23;20019;-76
2021/09/26 07:00:44;;;;;;;11.75;6.97;;;;;;;;;;6231069;22;20070;-76
2021/09/26 07:03:11;;;;;;;8.73;6.65;;;;;;;;;;6233877;23;20010;-76
2021/09/26 07:05:37;;;;;;;10.02;6.75;;;;;;;;;;6231717;23;20465;-77
2021/09/26 07:08:03;;;;;;;11.68;7.53;;;;;;;;;;6227053;23;20000;-76
2021/09/26 07:10:29;;;;;;;13.50;6.75;;;;;;;;;;6229846;23;20004;-76
2021/09/26 07:12:55;;;;;;;10.93;6.68;;;;;;;;;;6233173;23;20004;-77
2021/09/26 07:15:22;;;;;;;12.80;7.53;;;;;;;;;;6233371;23;20083;-77
2021/09/26 07:17:48;;;;;;;17.00;7.97;;;;;;;;;;6231010;23;20437;-77
2021/09/26 07:20:14;;;;;;;10.80;7.63;;;;;;;;;;6232999;23;20019;-77
2021/09/26 07:22:40;;;;;;;10.70;7.10;;;;;;;;;;6231929;23;20000;-75
2021/09/26 07:25:07;;;;;;;16.27;8.00;;;;;;;;;;6229941;23;20011;-76
2021/09/26 07:27:34;;;;;;;13.07;7.78;;;;;;;;;;6205110;23;20008;-76
2021/09/26 07:30:00;;;;;;;11.32;7.45;;;;;;;;;;6232659;23;20058;-77
2021/09/26 07:32:26;;;;;;;10.63;7.63;;;;;;;;;;6229859;23;20012;-76
2021/09/26 07:34:52;;;;;;;11.55;7.28;;;;;;;;;;6232536;23;20039;-77
2021/09/26 07:37:18;;;;;;;12.52;6.80;;;;;;;;;;6232210;23;20000;-76
2021/09/26 07:39:45;;;;;;;10.70;6.70;;;;;;;;;;6232339;23;20000;-77
2021/09/26 07:42:11;;;;;;;12.93;7.32;;;;;;;;;;6231087;23;20388;-76
2021/09/26 07:44:37;;;;;;;14.40;6.57;;;;;;;;;;6231709;23;20371;-76
2021/09/26 07:47:03;;;;;;;15.95;7.45;;;;;;;;;;6223456;23;20440;-76
2021/09/26 07:49:30;;;;;;;11.15;6.47;;;;;;;;;;6232804;23;20004;-76
2021/09/26 07:51:56;;;;;;;12.02;5.95;;;;;;;;;;6232642;23;20004;-78
2021/09/26 07:54:22;;;;;;;11.50;6.20;;;;;;;;;;6205157;23;20035;-77
2021/09/26 07:56:48;;;;;;;11.63;6.03;;;;;;;;;;6230276;23;20075;-76
2021/09/26 07:59:15;;;;;;;11.05;6.50;;;;;;;;;;6232465;23;20639;-76
2021/09/26 08:01:41;;;;;;;11.02;6.25;;;;;;;;;;6232660;22;20083;-76
2021/09/26 08:04:08;;;;;;;14.38;6.32;;;;;;;;;;6232427;23;20004;-76
2021/09/26 08:06:34;;;;;;;10.45;6.55;;;;;;;;;;6231664;23;20004;-77
2021/09/26 08:09:01;;;;;;;19.63;6.88;;;;;;;;;;6233161;23;20000;-77
2021/09/26 08:11:27;;;;;;;11.75;6.45;;;;;;;;;;6236102;23;20059;-77
2021/09/26 08:13:53;;;;;;;13.27;6.55;;;;;;;;;;6235633;23;20059;-78
2021/09/26 08:16:19;;;;;;;9.95;6.95;;;;;;;;;;6234666;23;20598;-77
2021/09/26 08:18:46;;;;;;;11.55;6.30;;;;;;;;;;6208117;23;20447;-77
2021/09/26 08:21:12;;;;;;;15.65;6.85;;;;;;;;;;6230129;23;20015;-77
2021/09/26 08:23:38;;;;;;;12.93;6.38;;;;;;;;;;6232150;23;20011;-76
2021/09/26 08:26:04;;;;;;;15.23;6.65;;;;;;;;;;6231687;23;20373;-77
2021/09/26 08:28:31;;;;;;;11.77;6.47;;;;;;;;;;6229955;23;20003;-77
2021/09/26 08:30:58;;;;;;;10.73;6.57;;;;;;;;;;6231414;23;20023;-77
2021/09/26 08:33:24;;;;;;;12.25;7.10;;;;;;;;;;6231637;23;20678;-77
2021/09/26 08:35:50;;;;;;;13.98;6.90;;;;;;;;;;6231889;23;20027;-76
2021/09/26 08:38:17;;;;;;;16.02;6.85;;;;;;;;;;6231919;23;20023;-78
2021/09/26 08:40:43;;;;;;;9.93;6.72;;;;;;;;;;6230114;23;20451;-76
2021/09/26 08:43:09;;;;;;;16.40;7.18;;;;;;;;;;6232129;23;20003;-77
2021/09/26 08:45:38;;;;;;;14.25;7.45;;;;;;;;;;6230921;23;20031;-74
2021/09/26 08:48:06;;;;;;;12.77;7.55;;;;;;;;;;6227979;23;20034;-74
2021/09/26 08:50:32;;;;;;;14.57;7.30;;;;;;;;;;6230289;23;20145;-74
2021/09/26 08:52:59;;;;;;;15.63;6.68;;;;;;;;;;6230916;23;19996;-74
2021/09/26 08:55:25;;;;;;;15.52;7.35;;;;;;;;;;6228182;23;20004;-73
2021/09/26 08:57:51;;;;;;;10.45;6.38;;;;;;;;;;6230139;23;20515;-73
2021/09/26 09:00:17;;;;;;;17.73;7.00;;;;;;;;;;6231083;22;20008;-74
2021/09/26 09:02:47;;;;;;;11.95;7.35;;;;;;;;;;6231810;23;20321;-77
2021/09/26 09:05:30;;;;;;;15.00;8.40;;;;;;;;;;6231346;23;20329;-80
2021/09/26 09:08:05;;;;;;;15.88;9.57;;;;;;;;;;6202967;23;21057;-74
2021/09/26 09:10:44;;;;;;;11.23;8.27;;;;;;;;;;6231421;23;20106;-73
2021/09/26 09:13:11;;;;;;;17.33;7.90;;;;;;;;;;6231822;23;20325;-77
2021/09/26 09:15:39;;;;;;;14.88;7.78;;;;;;;;;;6230995;23;19996;-74
2021/09/26 09:18:05;;;;;;;15.35;7.38;;;;;;;;;;6229035;23;20008;-74
2021/09/26 09:20:34;;;;;;;12.45;7.57;;;;;;;;;;6231411;23;20035;-74
2021/09/26 09:23:33;;;;;;;18.40;8.73;;;;;;;;;;6231031;23;20000;-74
2021/09/26 09:25:59;;;;;;;12.85;8.63;;;;;;;;;;6162833;23;20590;-74
2021/09/26 09:28:27;;;;;;;12.55;7.90;;;;;;;;;;6231049;23;20059;-74
2021/09/26 09:30:56;;;;;;;15.73;8.25;;;;;;;;;;6231811;23;20011;-79
2021/09/26 09:33:23;;;;;;;12.77;8.40;;;;;;;;;;6231689;23;20027;-74
2021/09/26 09:35:51;;;;;;;17.77;8.57;;;;;;;;;;6229481;23;20028;-74
2021/09/26 09:38:19;;;;;;;18.33;8.13;;;;;;;;;;6231347;23;20464;-77
2021/09/26 09:40:48;;;;;;;13.73;7.35;;;;;;;;;;6231407;23;20085;-76
2021/09/26 09:43:14;;;;;;;14.35;7.97;;;;;;;;;;6231196;23;20623;-75
2021/09/26 09:45:48;;;;;;;13.32;7.97;;;;;;;;;;6231095;23;20004;-73
2021/09/26 09:48:15;;;;;;;20.95;8.77;;;;;;;;;;6229181;23;20574;-73
2021/09/26 09:50:47;;;;;;;12.27;7.90;;;;;;;;;;6231492;23;20031;-74
2021/09/26 09:53:28;;;;;;;12.88;8.15;;;;;;;;;;6228398;23;20027;-77
2021/09/26 09:56:02;;;;;;;11.40;7.33;;;;;;;;;;6228240;23;20015;-74
2021/09/26 09:58:36;;;;;;;13.13;8.23;;;;;;;;;;6227879;23;20919;-73
2021/09/26 10:01:03;;;;;;;14.93;9.15;;;;;;;;;;6228423;22;20020;-79
2021/09/26 10:03:56;;;;;;;15.60;8.95;;;;;;;;;;6227674;23;19996;-73
2021/09/26 10:06:25;;;;;;;16.90;9.27;;;;;;;;;;6223389;23;20037;-75
2021/09/26 10:08:52;;;;;;;18.20;8.90;;;;;;;;;;6229518;23;20036;-78
2021/09/26 10:11:19;;;;;;;19.95;8.65;;;;;;;;;;6228906;23;20723;-74
2021/09/26 10:13:47;;;;;;;12.68;8.57;;;;;;;;;;6231195;23;20004;-74
2021/09/26 10:16:13;;;;;;;14.55;9.02;;;;;;;;;;6232599;23;20004;-73
2021/09/26 10:18:43;;;;;;;16.98;9.27;;;;;;;;;;6232942;23;20000;-74
2021/09/26 10:21:10;;;;;;;13.57;9.00;;;;;;;;;;6230758;23;20008;-74
2021/09/26 10:23:36;;;;;;;12.32;8.88;;;;;;;;;;6232489;23;20004;-73
2021/09/26 10:26:03;;;;;;;13.35;8.80;;;;;;;;;;6233282;23;20379;-73
2021/09/26 10:28:30;;;;;;;16.25;8.63;;;;;;;;;;6233502;23;20030;-73
2021/09/26 10:30:58;;;;;;;19.05;9.50;;;;;;;;;;6233389;23;20063;-73
2021/09/26 10:33:26;;;;;;;19.27;8.85;;;;;;;;;;6238466;23;20016;-74
2021/09/26 10:35:53;;;;;;;14.93;9.75;;;;;;;;;;6236521;23;20081;-72
2021/09/26 10:38:20;;;;;;;14.88;9.05;;;;;;;;;;6232800;23;20099;-75
2021/09/26 10:40:46;;;;;;;11.32;8.75;;;;;;;;;;6232277;23;20022;-76
2021/09/26 10:43:20;;;;;;;17.88;9.27;;;;;;;;;;6231221;23;20000;-72
2021/09/26 10:45:46;;;;;;;17.95;9.10;;;;;;;;;;6232945;23;20000;-72
2021/09/26 10:48:13;;;;;;;17.33;9.20;;;;;;;;;;6233061;23;20102;-71
2021/09/26 10:50:40;;;;;;;15.60;9.18;;;;;;;;;;6232295;23;20560;-73
2021/09/26 10:53:08;;;;;;;12.45;8.07;;;;;;;;;;6232547;23;20019;-71
2021/09/26 10:55:34;;;;;;;20.33;8.75;;;;;;;;;;6231260;23;20384;-71
2021/09/26 10:58:00;;;;;;;16.67;9.77;;;;;;;;;;6233185;23;20000;-71
2021/09/26 11:00:31;;;;;;;13.10;8.00;;;;;;;;;;6232317;22;20019;-73
2021/09/26 11:03:04;;;;;;;13.67;8.43;;;;;;;;;;6232356;23;20097;-72
2021/09/26 11:05:38;;;;;;;13.13;9.13;;;;;;;;;;6233114;23;20649;-75
2021/09/26 11:08:06;;;;;;;12.48;8.63;;;;;;;;;;6231123;23;19996;-71
2021/09/26 11:10:36;;;;;;;17.98;8.18;;;;;;;;;;6232936;23;20035;-71
2021/09/26 11:13:10;;;;;;;13.88;8.10;;;;;;;;;;6232831;23;20000;-71
2021/09/26 11:15:56;;;;;;;12.85;7.57;;;;;;;;;;6232559;23;20058;-71
2021/09/26 11:18:40;;;;;;;12.18;7.70;;;;;;;;;;6232016;23;20004;-72
2021/09/26 11:21:07;;;;;;;10.13;7.38;;;;;;;;;;6232671;23;20052;-71
2021/09/26 11:23:34;;;;;;;9.80;7.32;;;;;;;;;;6230876;23;20058;-71
2021/09/26 11:26:06;;;;;;;11.98;7.20;;;;;;;;;;6232636;23;20035;-74
2021/09/26 11:28:40;;;;;;;8.48;6.75;;;;;;;;;;6232547;23;20001;-71
2021/09/26 11:31:11;;;;;;;12.23;7.03;;;;;;;;;;6230845;23;20043;-72
2021/09/26 11:34:03;;;;;;;17.65;7.18;;;;;;;;;;6232348;23;20102;-71
2021/09/26 11:36:30;;;;;;;13.82;7.45;;;;;;;;;;6226270;23;20083;-71
2021/09/26 11:38:56;;;;;;;12.30;6.93;;;;;;;;;;6232267;23;20395;-71
2021/09/26 11:41:36;;;;;;;12.00;7.35;;;;;;;;;;6232739;23;20016;-71
2021/09/26 11:44:03;;;;;;;10.45;6.93;;;;;;;;;;6230119;23;20024;-77
2021/09/26 11:46:29;;;;;;;15.48;6.82;;;;;;;;;;6228629;23;20004;-72
2021/09/26 11:49:05;;;;;;;12.20;6.95;;;;;;;;;;6229350;23;20004;-74
2021/09/26 11:51:31;;;;;;;11.27;7.05;;;;;;;;;;6229782;23;20004;-72
2021/09/26 11:53:58;;;;;;;9.88;7.43;;;;;;;;;;6227452;23;20011;-72
2021/09/26 11:56:26;;;;;;;11.95;6.45;;;;;;;;;;6229235;23;20004;-72
2021/09/26 11:58:54;;;;;;;13.52;6.80;;;;;;;;;;6228742;23;20405;-76
2021/09/26 12:01:30;;;;;;;12.95;7.63;;;;;;;;;;6229268;22;20070;-77
2021/09/26 12:04:16;;;;;;;13.38;6.82;;;;;;;;;;6227577;23;20376;-72
2021/09/26 12:07:01;;;;;;;13.55;6.57;;;;;;;;;;6229761;23;20000;-72
2021/09/26 12:09:41;;;;;;;14.82;6.97;;;;;;;;;;6229143;23;20388;-72
2021/09/26 12:12:09;;;;;;;9.82;6.60;;;;;;;;;;6227379;23;20000;-73
2021/09/26 12:14:36;;;;;;;12.88;7.95;;;;;;;;;;6228368;23;20008;-72
2021/09/26 12:17:05;;;;;;;12.70;8.13;;;;;;;;;;6228789;23;19996;-73
2021/09/26 12:19:32;;;;;;;13.13;7.43;;;;;;;;;;6228458;23;20010;-73
2021/09/26 12:21:59;;;;;;;9.25;6.95;;;;;;;;;;6225725;23;20003;-78
2021/09/26 12:24:30;;;;;;;10.13;7.47;;;;;;;;;;6229397;23;20015;-72
2021/09/26 12:26:56;;;;;;;11.75;7.97;;;;;;;;;;6229095;23;20079;-77
2021/09/26 12:29:25;;;;;;;11.18;6.93;;;;;;;;;;6229293;23;20004;-72
2021/09/26 12:31:54;;;;;;;10.38;7.47;;;;;;;;;;6228283;23;20016;-72
2021/09/26 12:34:26;;;;;;;14.40;8.20;;;;;;;;;;6226198;23;20535;-74
2021/09/26 12:36:53;;;;;;;9.85;7.57;;;;;;;;;;6228602;23;20071;-72
2021/09/26 12:39:23;;;;;;;11.50;7.00;;;;;;;;;;6229372;23;20083;-72
2021/09/26 12:41:52;;;;;;;9.95;6.85;;;;;;;;;;6229031;23;20273;-73
2021/09/26 12:44:27;;;;;;;14.80;7.53;;;;;;;;;;6201931;23;20119;-77
2021/09/26 12:46:53;;;;;;;12.93;6.47;;;;;;;;;;6227298;23;20460;-78
2021/09/26 12:49:20;;;;;;;13.80;7.20;;;;;;;;;;6228945;23;20079;-72
2021/09/26 12:51:48;;;;;;;14.35;7.57;;;;;;;;;;6228454;23;20036;-75
2021/09/26 12:54:21;;;;;;;9.57;6.97;;;;;;;;;;6227892;23;20345;-78
2021/09/26 12:56:47;;;;;;;14.77;7.63;;;;;;;;;;6229094;23;20110;-73
2021/09/26 12:59:24;;;;;;;11.20;6.93;;;;;;;;;;6226320;23;20506;-73
2021/09/26 13:01:59;;;;;;;10.52;6.05;;;;;;;;;;6228556;22;20008;-72
2021/09/26 13:04:26;;;;;;;12.55;6.20;;;;;;;;;;6228403;23;20021;-74
2021/09/26 13:06:57;;;;;;;13.00;6.60;;;;;;;;;;6228793;23;20062;-73
2021/09/26 13:09:24;;;;;;;15.18;6.45;;;;;;;;;;6228444;23;20011;-73
2021/09/26 13:11:50;;;;;;;10.98;5.93;;;;;;;;;;6226024;23;20038;-73
2021/09/26 13:14:22;;;;;;;13.75;6.05;;;;;;;;;;6228735;23;20028;-77
2021/09/26 13:16:49;;;;;;;13.38;6.22;;;;;;;;;;6228104;23;20409;-73
2021/09/26 13:19:35;;;;;;;13.55;6.60;;;;;;;;;;6229064;23;20011;-72
2021/09/26 13:22:08;;;;;;;12.15;6.22;;;;;;;;;;6224076;23;20012;-72
2021/09/26 13:24:35;;;;;;;11.45;6.63;;;;;;;;;;6228605;23;20004;-72
2021/09/26 13:27:14;;;;;;;10.30;6.22;;;;;;;;;;6227932;23;20437;-77
2021/09/26 13:29:40;;;;;;;11.10;5.78;;;;;;;;;;6228140;23;20004;-73
2021/09/26 13:32:19;;;;;;;9.27;6.20;;;;;;;;;;6227849;23;20015;-72
2021/09/26 13:34:46;;;;;;;13.40;6.70;;;;;;;;;;6227016;23;20012;-79
2021/09/26 13:37:20;;;;;;;8.85;5.63;;;;;;;;;;6228802;23;19996;-72
2021/09/26 13:39:48;;;;;;;12.45;6.85;;;;;;;;;;6228382;23;20492;-73
2021/09/26 13:42:20;;;;;;;15.57;6.60;;;;;;;;;;6229049;23;20364;-73
2021/09/26 13:44:47;;;;;;;15.35;6.60;;;;;;;;;;6227864;23;20097;-72
2021/09/26 13:47:13;;;;;;;12.00;6.78;;;;;;;;;;6230667;23;20134;-72
2021/09/26 13:49:39;;;;;;;10.27;6.43;;;;;;;;;;6230804;23;20651;-73
2021/09/26 13:52:06;;;;;;;12.40;6.40;;;;;;;;;;6229921;23;20004;-73
2021/09/26 13:54:32;;;;;;;10.02;6.13;;;;;;;;;;6231393;23;20221;-72
2021/09/26 13:56:59;;;;;;;16.58;7.07;;;;;;;;;;6230529;23;20000;-71
2021/09/26 13:59:25;;;;;;;11.88;6.22;;;;;;;;;;6233799;23;20008;-72
2021/09/26 14:01:52;;;;;;;12.88;6.22;;;;;;;;;;6233206;22;20087;-72
2021/09/26 14:04:18;;;;;;;10.68;6.25;;;;;;;;;;6233686;23;20000;-72
2021/09/26 14:06:44;;;;;;;12.27;6.35;;;;;;;;;;6233725;23;20071;-73
2021/09/26 14:09:11;;;;;;;15.45;6.65;;;;;;;;;;6233121;23;20000;-72
2021/09/26 14:11:38;;;;;;;14.18;7.32;;;;;;;;;;6231823;23;20050;-72
2021/09/26 14:14:05;;;;;;;9.32;6.47;;;;;;;;;;6233216;23;20067;-72
2021/09/26 14:16:31;;;;;;;14.90;6.53;;;;;;;;;;6232732;23;20089;-72
2021/09/26 14:18:57;;;;;;;14.23;6.55;;;;;;;;;;6205953;23;20070;-72
2021/09/26 14:21:24;;;;;;;13.10;6.45;;;;;;;;;;6232991;23;20058;-72
2021/09/26 14:23:52;;;;;;;8.70;6.13;;;;;;;;;;6231361;23;20198;-71
2021/09/26 14:26:18;;;;;;;7.63;6.15;;;;;;;;;;6206322;23;20421;-77
2021/09/26 14:28:44;;;;;;;11.55;6.65;;;;;;;;;;6233659;23;20000;-72
2021/09/26 14:31:11;;;;;;;13.73;7.20;;;;;;;;;;6232559;23;20026;-74
2021/09/26 14:33:39;;;;;;;14.65;6.68;;;;;;;;;;6230924;23;20000;-73
2021/09/26 14:36:06;;;;;;;12.75;6.72;;;;;;;;;;6233311;23;20034;-72